sensor_id;sensor_type;location;lat;lon;timestamp;temperature;humidity
9095;DHT22;4583;49.796;9.902;2023-03-02T00:08:46;4.20;65.80
9095;DHT22;4583;49.796;9.902;2023-03-02T00:18:47;4.20;66.10
9095;DHT22;4583;49.796;9.902;2023-03-02T00:38:51;4.20;66.60
9095;DHT22;4583;49.796;9.902;2023-03-02T00:48:53;4.30;66.50
9095;DHT22;4583;49.796;9.902;2023-03-02T01:03:28;4.10;66.10
9095;DHT22;4583;49.796;9.902;2023-03-02T01:13:30;4.00;66.20
9095;DHT22;4583;49.796;9.902;2023-03-02T01:23:32;3.90;66.40
9095;DHT22;4583;49.796;9.902;2023-03-02T02:02:39;3.60;67.30
9095;DHT22;4583;49.796;9.902;2023-03-02T02:12:42;3.50;68.00
9095;DHT22;4583;49.796;9.902;2023-03-02T02:33:22;3.40;68.60
9095;DHT22;4583;49.796;9.902;2023-03-02T02:43:25;3.30;68.80
9095;DHT22;4583;49.796;9.902;2023-03-02T02:53:34;3.20;69.00
9095;DHT22;4583;49.796;9.902;2023-03-02T03:03:39;2.80;69.30
9095;DHT22;4583;49.796;9.902;2023-03-02T03:13:43;3.20;70.60
9095;DHT22;4583;49.796;9.902;2023-03-02T03:33:49;3.00;69.60
9095;DHT22;4583;49.796;9.902;2023-03-02T03:43:51;2.80;69.80
9095;DHT22;4583;49.796;9.902;2023-03-02T03:53:52;2.80;70.40
9095;DHT22;4583;49.796;9.902;2023-03-02T04:04:01;2.80;70.60
9095;DHT22;4583;49.796;9.902;2023-03-02T04:14:04;2.60;70.90
9095;DHT22;4583;49.796;9.902;2023-03-02T04:24:07;2.70;71.30
9095;DHT22;4583;49.796;9.902;2023-03-02T04:34:09;2.70;71.30
9095;DHT22;4583;49.796;9.902;2023-03-02T04:44:12;2.70;71.60
9095;DHT22;4583;49.796;9.902;2023-03-02T04:54:23;2.60;72.40
9095;DHT22;4583;49.796;9.902;2023-03-02T05:04:26;2.90;73.20
9095;DHT22;4583;49.796;9.902;2023-03-02T05:14:28;3.00;74.10
9095;DHT22;4583;49.796;9.902;2023-03-02T05:24:30;2.50;73.70
9095;DHT22;4583;49.796;9.902;2023-03-02T05:34:32;2.50;74.10
9095;DHT22;4583;49.796;9.902;2023-03-02T05:44:33;3.60;75.50
9095;DHT22;4583;49.796;9.902;2023-03-02T06:04:37;2.50;75.00
9095;DHT22;4583;49.796;9.902;2023-03-02T06:14:43;2.60;75.10
9095;DHT22;4583;49.796;9.902;2023-03-02T06:44:49;3.00;75.80
9095;DHT22;4583;49.796;9.902;2023-03-02T06:54:53;3.10;75.40
9095;DHT22;4583;49.796;9.902;2023-03-02T07:04:54;3.30;75.50
9095;DHT22;4583;49.796;9.902;2023-03-02T07:14:56;3.50;75.50
9095;DHT22;4583;49.796;9.902;2023-03-02T07:24:58;3.80;75.50
9095;DHT22;4583;49.796;9.902;2023-03-02T07:34:59;4.50;75.90
9095;DHT22;4583;49.796;9.902;2023-03-02T07:45:01;4.40;75.20
9095;DHT22;4583;49.796;9.902;2023-03-02T07:55:05;4.80;74.40
9095;DHT22;4583;49.796;9.902;2023-03-02T08:05:07;5.20;74.10
9095;DHT22;4583;49.796;9.902;2023-03-02T08:18:01;5.70;72.80
9095;DHT22;4583;49.796;9.902;2023-03-02T08:38:04;6.30;71.00
9095;DHT22;4583;49.796;9.902;2023-03-02T08:48:06;6.70;70.60
9095;DHT22;4583;49.796;9.902;2023-03-02T08:58:08;6.90;69.60
9095;DHT22;4583;49.796;9.902;2023-03-02T09:18:12;7.40;68.10
9095;DHT22;4583;49.796;9.902;2023-03-02T09:28:15;7.70;67.30
9095;DHT22;4583;49.796;9.902;2023-03-02T09:38:18;8.00;66.70
9095;DHT22;4583;49.796;9.902;2023-03-02T10:00:00;8.50;65.40
9095;DHT22;4583;49.796;9.902;2023-03-02T10:30:36;9.10;64.10
9095;DHT22;4583;49.796;9.902;2023-03-02T10:40:45;9.30;63.60
9095;DHT22;4583;49.796;9.902;2023-03-02T10:50:53;9.40;62.90
9095;DHT22;4583;49.796;9.902;2023-03-02T11:11:04;9.70;62.80
9095;DHT22;4583;49.796;9.902;2023-03-02T11:21:10;9.90;62.60
9095;DHT22;4583;49.796;9.902;2023-03-02T11:31:50;10.10;61.20
9095;DHT22;4583;49.796;9.902;2023-03-02T11:41:52;10.20;60.80
9095;DHT22;4583;49.796;9.902;2023-03-02T11:51:57;10.70;60.60
9095;DHT22;4583;49.796;9.902;2023-03-02T12:02:00;11.00;59.90
9095;DHT22;4583;49.796;9.902;2023-03-02T12:12:33;11.20;59.50
9095;DHT22;4583;49.796;9.902;2023-03-02T12:22:35;11.50;59.20
9095;DHT22;4583;49.796;9.902;2023-03-02T12:32:38;11.80;58.70
9095;DHT22;4583;49.796;9.902;2023-03-02T12:53:05;12.20;57.80
9095;DHT22;4583;49.796;9.902;2023-03-02T13:03:12;12.40;57.60
9095;DHT22;4583;49.796;9.902;2023-03-02T13:13:39;12.50;57.00
9095;DHT22;4583;49.796;9.902;2023-03-02T13:23:49;12.60;56.60
9095;DHT22;4583;49.796;9.902;2023-03-02T13:33:53;12.80;56.50
9095;DHT22;4583;49.796;9.902;2023-03-02T13:43:57;13.00;56.40
9095;DHT22;4583;49.796;9.902;2023-03-02T13:54:04;13.40;56.10
9095;DHT22;4583;49.796;9.902;2023-03-02T14:04:18;13.60;55.50
9095;DHT22;4583;49.796;9.902;2023-03-02T14:14:25;13.70;55.40
9095;DHT22;4583;49.796;9.902;2023-03-02T14:24:27;14.40;54.60
9095;DHT22;4583;49.796;9.902;2023-03-02T14:34:29;15.10;53.10
9095;DHT22;4583;49.796;9.902;2023-03-02T14:51:20;15.60;52.00
9095;DHT22;4583;49.796;9.902;2023-03-02T15:01:23;18.00;48.50
9095;DHT22;4583;49.796;9.902;2023-03-02T15:11:26;19.60;47.40
9095;DHT22;4583;49.796;9.902;2023-03-02T15:21:28;21.40;45.00
9095;DHT22;4583;49.796;9.902;2023-03-02T15:31:30;21.50;46.70
